sensor_id;sensor_type;location;lat;lon;timestamp;P1;durP1;ratioP1;P2;durP2;ratioP2
48623;SDS011;75490;45.802;16.114;2024-03-06T00:00:36;26.40;;;13.07;;
48623;SDS011;75490;45.802;16.114;2024-03-06T00:03:03;23.80;;;12.40;;
48623;SDS011;75490;45.802;16.114;2024-03-06T00:05:30;24.38;;;12.45;;
48623;SDS011;75490;45.802;16.114;2024-03-06T00:07:56;24.70;;;11.93;;
48623;SDS011;75490;45.802;16.114;2024-03-06T00:10:23;25.17;;;13.23;;
48623;SDS011;75490;45.802;16.114;2024-03-06T00:12:50;24.85;;;12.02;;
48623;SDS011;75490;45.802;16.114;2024-03-06T00:15:17;22.95;;;12.70;;
48623;SDS011;75490;45.802;16.114;2024-03-06T00:17:44;23.30;;;12.05;;
48623;SDS011;75490;45.802;16.114;2024-03-06T00:20:11;23.20;;;12.52;;
48623;SDS011;75490;45.802;16.114;2024-03-06T00:22:38;20.42;;;11.95;;
48623;SDS011;75490;45.802;16.114;2024-03-06T00:25:05;22.45;;;12.55;;
48623;SDS011;75490;45.802;16.114;2024-03-06T00:27:32;23.75;;;12.77;;
48623;SDS011;75490;45.802;16.114;2024-03-06T00:29:59;19.40;;;11.55;;
48623;SDS011;75490;45.802;16.114;2024-03-06T00:32:26;20.17;;;12.43;;
48623;SDS011;75490;45.802;16.114;2024-03-06T00:34:53;23.63;;;12.88;;
48623;SDS011;75490;45.802;16.114;2024-03-06T00:37:19;23.20;;;13.00;;
48623;SDS011;75490;45.802;16.114;2024-03-06T00:39:46;25.60;;;12.90;;
48623;SDS011;75490;45.802;16.114;2024-03-06T00:42:13;25.85;;;12.95;;
48623;SDS011;75490;45.802;16.114;2024-03-06T00:44:40;24.15;;;13.32;;
48623;SDS011;75490;45.802;16.114;2024-03-06T00:47:07;26.25;;;13.05;;
48623;SDS011;75490;45.802;16.114;2024-03-06T00:49:34;24.92;;;13.95;;
48623;SDS011;75490;45.802;16.114;2024-03-06T00:52:00;27.80;;;13.73;;
48623;SDS011;75490;45.802;16.114;2024-03-06T00:54:27;26.52;;;14.13;;
48623;SDS011;75490;45.802;16.114;2024-03-06T00:56:54;26.05;;;14.52;;
48623;SDS011;75490;45.802;16.114;2024-03-06T00:59:21;28.00;;;15.18;;
48623;SDS011;75490;45.802;16.114;2024-03-06T01:01:47;31.02;;;14.73;;
48623;SDS011;75490;45.802;16.114;2024-03-06T01:04:14;29.58;;;15.10;;
48623;SDS011;75490;45.802;16.114;2024-03-06T01:06:41;29.95;;;14.15;;
48623;SDS011;75490;45.802;16.114;2024-03-06T01:09:08;30.45;;;15.05;;
48623;SDS011;75490;45.802;16.114;2024-03-06T01:11:35;26.70;;;14.95;;
48623;SDS011;75490;45.802;16.114;2024-03-06T01:14:01;27.67;;;14.00;;
48623;SDS011;75490;45.802;16.114;2024-03-06T01:16:30;24.77;;;14.05;;
48623;SDS011;75490;45.802;16.114;2024-03-06T01:18:57;30.60;;;15.00;;
48623;SDS011;75490;45.802;16.114;2024-03-06T01:21:23;28.52;;;15.25;;
48623;SDS011;75490;45.802;16.114;2024-03-06T01:23:50;27.48;;;14.55;;
48623;SDS011;75490;45.802;16.114;2024-03-06T01:26:17;23.60;;;13.32;;
48623;SDS011;75490;45.802;16.114;2024-03-06T01:28:44;27.27;;;13.80;;
48623;SDS011;75490;45.802;16.114;2024-03-06T01:31:10;24.85;;;13.70;;
48623;SDS011;75490;45.802;16.114;2024-03-06T01:33:38;26.98;;;14.98;;
48623;SDS011;75490;45.802;16.114;2024-03-06T01:36:04;29.30;;;14.13;;
48623;SDS011;75490;45.802;16.114;2024-03-06T01:38:31;29.02;;;13.95;;
48623;SDS011;75490;45.802;16.114;2024-03-06T01:40:58;25.98;;;14.75;;
48623;SDS011;75490;45.802;16.114;2024-03-06T01:43:25;32.33;;;14.82;;
48623;SDS011;75490;45.802;16.114;2024-03-06T01:45:52;26.63;;;13.43;;
48623;SDS011;75490;45.802;16.114;2024-03-06T01:48:20;30.70;;;14.95;;
48623;SDS011;75490;45.802;16.114;2024-03-06T01:50:49;28.98;;;13.82;;
48623;SDS011;75490;45.802;16.114;2024-03-06T01:53:16;26.40;;;13.77;;
48623;SDS011;75490;45.802;16.114;2024-03-06T01:55:44;28.33;;;14.23;;
48623;SDS011;75490;45.802;16.114;2024-03-06T01:58:11;42.38;;;21.67;;
48623;SDS011;75490;45.802;16.114;2024-03-06T02:00:39;33.53;;;18.88;;
48623;SDS011;75490;45.802;16.114;2024-03-06T02:03:06;31.73;;;17.08;;
48623;SDS011;75490;45.802;16.114;2024-03-06T02:05:33;26.63;;;14.30;;
48623;SDS011;75490;45.802;16.114;2024-03-06T02:08:00;29.65;;;15.23;;
48623;SDS011;75490;45.802;16.114;2024-03-06T02:10:28;26.98;;;14.77;;
48623;SDS011;75490;45.802;16.114;2024-03-06T02:12:55;31.45;;;14.75;;
48623;SDS011;75490;45.802;16.114;2024-03-06T02:15:22;26.90;;;14.60;;
48623;SDS011;75490;45.802;16.114;2024-03-06T02:17:49;28.10;;;14.65;;
48623;SDS011;75490;45.802;16.114;2024-03-06T02:20:16;34.70;;;15.60;;
48623;SDS011;75490;45.802;16.114;2024-03-06T02:22:43;28.63;;;15.18;;
48623;SDS011;75490;45.802;16.114;2024-03-06T02:25:09;28.17;;;15.35;;
48623;SDS011;75490;45.802;16.114;2024-03-06T02:27:38;25.00;;;14.13;;
48623;SDS011;75490;45.802;16.114;2024-03-06T02:30:05;33.33;;;15.73;;
48623;SDS011;75490;45.802;16.114;2024-03-06T02:32:32;30.42;;;15.85;;
48623;SDS011;75490;45.802;16.114;2024-03-06T02:35:00;25.42;;;13.07;;
48623;SDS011;75490;45.802;16.114;2024-03-06T02:37:29;28.55;;;14.45;;
48623;SDS011;75490;45.802;16.114;2024-03-06T02:39:56;29.25;;;14.13;;
48623;SDS011;75490;45.802;16.114;2024-03-06T02:42:22;26.08;;;12.90;;
48623;SDS011;75490;45.802;16.114;2024-03-06T02:44:49;24.58;;;13.13;;
48623;SDS011;75490;45.802;16.114;2024-03-06T02:47:16;27.25;;;14.82;;
48623;SDS011;75490;45.802;16.114;2024-03-06T02:49:43;28.25;;;12.98;;
48623;SDS011;75490;45.802;16.114;2024-03-06T02:52:10;26.38;;;12.82;;
48623;SDS011;75490;45.802;16.114;2024-03-06T02:54:37;24.77;;;13.00;;
48623;SDS011;75490;45.802;16.114;2024-03-06T02:57:03;24.70;;;13.93;;
48623;SDS011;75490;45.802;16.114;2024-03-06T02:59:30;25.67;;;13.80;;
48623;SDS011;75490;45.802;16.114;2024-03-06T03:01:57;24.05;;;13.48;;
48623;SDS011;75490;45.802;16.114;2024-03-06T03:04:24;27.08;;;14.02;;
48623;SDS011;75490;45.802;16.114;2024-03-06T03:06:50;28.25;;;14.05;;
48623;SDS011;75490;45.802;16.114;2024-03-06T03:09:17;27.73;;;13.90;;
48623;SDS011;75490;45.802;16.114;2024-03-06T03:11:44;24.77;;;13.40;;
48623;SDS011;75490;45.802;16.114;2024-03-06T03:14:11;30.80;;;13.85;;
48623;SDS011;75490;45.802;16.114;2024-03-06T03:16:38;22.83;;;12.27;;
48623;SDS011;75490;45.802;16.114;2024-03-06T03:19:05;24.52;;;12.00;;
48623;SDS011;75490;45.802;16.114;2024-03-06T03:21:31;26.20;;;14.38;;
48623;SDS011;75490;45.802;16.114;2024-03-06T03:23:58;26.52;;;14.75;;
48623;SDS011;75490;45.802;16.114;2024-03-06T03:26:25;25.13;;;12.48;;
48623;SDS011;75490;45.802;16.114;2024-03-06T03:28:52;28.98;;;14.13;;
48623;SDS011;75490;45.802;16.114;2024-03-06T03:31:19;25.67;;;13.38;;
48623;SDS011;75490;45.802;16.114;2024-03-06T03:33:45;29.98;;;14.52;;
48623;SDS011;75490;45.802;16.114;2024-03-06T03:36:12;32.75;;;15.43;;
48623;SDS011;75490;45.802;16.114;2024-03-06T03:38:39;23.48;;;12.07;;
48623;SDS011;75490;45.802;16.114;2024-03-06T03:41:09;30.83;;;15.55;;
48623;SDS011;75490;45.802;16.114;2024-03-06T03:43:37;26.63;;;13.95;;
48623;SDS011;75490;45.802;16.114;2024-03-06T03:46:05;29.35;;;14.27;;
48623;SDS011;75490;45.802;16.114;2024-03-06T03:48:33;27.33;;;13.52;;
48623;SDS011;75490;45.802;16.114;2024-03-06T03:51:03;27.70;;;13.88;;
48623;SDS011;75490;45.802;16.114;2024-03-06T03:53:33;25.87;;;13.47;;
48623;SDS011;75490;45.802;16.114;2024-03-06T03:56:00;26.75;;;14.23;;
48623;SDS011;75490;45.802;16.114;2024-03-06T03:58:27;25.40;;;13.45;;
48623;SDS011;75490;45.802;16.114;2024-03-06T04:00:54;27.23;;;14.40;;
48623;SDS011;75490;45.802;16.114;2024-03-06T04:03:22;26.58;;;13.75;;
48623;SDS011;75490;45.802;16.114;2024-03-06T04:05:49;25.50;;;13.60;;
48623;SDS011;75490;45.802;16.114;2024-03-06T04:08:16;31.17;;;13.75;;
48623;SDS011;75490;45.802;16.114;2024-03-06T04:10:43;23.95;;;13.02;;
48623;SDS011;75490;45.802;16.114;2024-03-06T04:13:14;25.97;;;14.17;;
48623;SDS011;75490;45.802;16.114;2024-03-06T04:15:42;25.25;;;13.00;;
48623;SDS011;75490;45.802;16.114;2024-03-06T04:18:09;28.77;;;13.85;;
48623;SDS011;75490;45.802;16.114;2024-03-06T04:20:36;26.38;;;13.30;;
48623;SDS011;75490;45.802;16.114;2024-03-06T04:23:02;29.40;;;14.88;;
48623;SDS011;75490;45.802;16.114;2024-03-06T04:25:29;27.20;;;13.57;;
48623;SDS011;75490;45.802;16.114;2024-03-06T04:27:56;25.58;;;13.43;;
48623;SDS011;75490;45.802;16.114;2024-03-06T04:30:23;24.15;;;12.00;;
48623;SDS011;75490;45.802;16.114;2024-03-06T04:32:51;25.48;;;14.27;;
48623;SDS011;75490;45.802;16.114;2024-03-06T04:35:18;29.10;;;14.88;;
48623;SDS011;75490;45.802;16.114;2024-03-06T04:37:44;24.77;;;13.52;;
48623;SDS011;75490;45.802;16.114;2024-03-06T04:40:11;23.02;;;13.65;;
48623;SDS011;75490;45.802;16.114;2024-03-06T04:42:41;22.30;;;12.40;;
48623;SDS011;75490;45.802;16.114;2024-03-06T04:45:10;24.95;;;13.45;;
48623;SDS011;75490;45.802;16.114;2024-03-06T04:47:38;22.48;;;12.32;;
48623;SDS011;75490;45.802;16.114;2024-03-06T04:50:12;22.13;;;11.65;;
48623;SDS011;75490;45.802;16.114;2024-03-06T04:52:42;20.88;;;11.30;;
48623;SDS011;75490;45.802;16.114;2024-03-06T04:55:09;24.17;;;12.57;;
48623;SDS011;75490;45.802;16.114;2024-03-06T04:57:37;23.60;;;12.75;;
48623;SDS011;75490;45.802;16.114;2024-03-06T05:00:04;21.90;;;12.82;;
48623;SDS011;75490;45.802;16.114;2024-03-06T05:02:32;21.88;;;12.27;;
48623;SDS011;75490;45.802;16.114;2024-03-06T05:05:00;22.90;;;13.30;;
48623;SDS011;75490;45.802;16.114;2024-03-06T05:07:27;24.13;;;11.20;;
48623;SDS011;75490;45.802;16.114;2024-03-06T05:09:55;20.13;;;10.63;;
48623;SDS011;75490;45.802;16.114;2024-03-06T05:12:23;24.25;;;12.65;;
48623;SDS011;75490;45.802;16.114;2024-03-06T05:14:51;24.27;;;11.90;;
48623;SDS011;75490;45.802;16.114;2024-03-06T05:17:19;23.40;;;12.38;;
48623;SDS011;75490;45.802;16.114;2024-03-06T05:19:46;21.95;;;11.45;;
48623;SDS011;75490;45.802;16.114;2024-03-06T05:22:14;20.48;;;11.05;;
48623;SDS011;75490;45.802;16.114;2024-03-06T05:24:42;25.88;;;14.40;;
48623;SDS011;75490;45.802;16.114;2024-03-06T05:27:09;22.73;;;12.68;;
48623;SDS011;75490;45.802;16.114;2024-03-06T05:29:39;21.03;;;11.60;;
48623;SDS011;75490;45.802;16.114;2024-03-06T05:32:06;23.92;;;13.63;;
48623;SDS011;75490;45.802;16.114;2024-03-06T05:34:35;29.10;;;14.35;;
48623;SDS011;75490;45.802;16.114;2024-03-06T05:37:02;23.17;;;11.68;;
48623;SDS011;75490;45.802;16.114;2024-03-06T05:39:32;22.85;;;12.25;;
48623;SDS011;75490;45.802;16.114;2024-03-06T05:42:00;27.10;;;13.27;;
48623;SDS011;75490;45.802;16.114;2024-03-06T05:44:30;25.48;;;13.00;;
48623;SDS011;75490;45.802;16.114;2024-03-06T05:46:58;25.45;;;12.32;;
48623;SDS011;75490;45.802;16.114;2024-03-06T05:49:27;24.17;;;13.13;;
48623;SDS011;75490;45.802;16.114;2024-03-06T05:51:55;27.70;;;12.27;;
48623;SDS011;75490;45.802;16.114;2024-03-06T05:54:22;19.92;;;10.88;;
48623;SDS011;75490;45.802;16.114;2024-03-06T05:56:49;21.65;;;12.05;;
48623;SDS011;75490;45.802;16.114;2024-03-06T05:59:18;25.40;;;12.88;;
48623;SDS011;75490;45.802;16.114;2024-03-06T06:01:45;24.02;;;12.13;;
48623;SDS011;75490;45.802;16.114;2024-03-06T06:04:12;24.55;;;13.07;;
48623;SDS011;75490;45.802;16.114;2024-03-06T06:06:40;22.58;;;12.80;;
48623;SDS011;75490;45.802;16.114;2024-03-06T06:09:07;22.42;;;12.27;;
48623;SDS011;75490;45.802;16.114;2024-03-06T06:11:39;25.08;;;12.73;;
48623;SDS011;75490;45.802;16.114;2024-03-06T06:14:05;22.92;;;12.52;;
48623;SDS011;75490;45.802;16.114;2024-03-06T06:16:36;20.65;;;11.50;;
48623;SDS011;75490;45.802;16.114;2024-03-06T06:21:44;22.20;;;12.15;;
48623;SDS011;75490;45.802;16.114;2024-03-06T06:24:11;22.77;;;12.25;;
48623;SDS011;75490;45.802;16.114;2024-03-06T06:26:37;21.95;;;12.38;;
48623;SDS011;75490;45.802;16.114;2024-03-06T06:29:04;20.90;;;12.10;;
48623;SDS011;75490;45.802;16.114;2024-03-06T06:31:32;21.98;;;12.00;;
48623;SDS011;75490;45.802;16.114;2024-03-06T06:33:59;24.27;;;12.48;;
48623;SDS011;75490;45.802;16.114;2024-03-06T06:36:25;28.10;;;12.85;;
48623;SDS011;75490;45.802;16.114;2024-03-06T06:38:53;25.88;;;13.50;;
48623;SDS011;75490;45.802;16.114;2024-03-06T06:41:21;25.98;;;12.85;;
48623;SDS011;75490;45.802;16.114;2024-03-06T06:43:50;23.63;;;12.00;;
48623;SDS011;75490;45.802;16.114;2024-03-06T06:46:18;23.73;;;11.82;;
48623;SDS011;75490;45.802;16.114;2024-03-06T06:48:45;22.73;;;11.45;;
48623;SDS011;75490;45.802;16.114;2024-03-06T06:51:14;22.92;;;11.93;;
48623;SDS011;75490;45.802;16.114;2024-03-06T06:53:41;23.25;;;11.75;;
48623;SDS011;75490;45.802;16.114;2024-03-06T06:56:10;24.35;;;11.95;;
48623;SDS011;75490;45.802;16.114;2024-03-06T06:58:37;24.55;;;12.50;;
48623;SDS011;75490;45.802;16.114;2024-03-06T07:01:09;20.70;;;11.38;;
48623;SDS011;75490;45.802;16.114;2024-03-06T07:03:36;20.75;;;11.57;;
48623;SDS011;75490;45.802;16.114;2024-03-06T07:06:03;20.75;;;11.57;;
48623;SDS011;75490;45.802;16.114;2024-03-06T07:08:30;21.67;;;11.45;;
48623;SDS011;75490;45.802;16.114;2024-03-06T07:10:57;22.48;;;12.77;;
48623;SDS011;75490;45.802;16.114;2024-03-06T07:13:24;22.63;;;11.50;;
48623;SDS011;75490;45.802;16.114;2024-03-06T07:15:52;21.98;;;11.77;;
48623;SDS011;75490;45.802;16.114;2024-03-06T07:18:19;24.50;;;12.18;;
48623;SDS011;75490;45.802;16.114;2024-03-06T07:20:45;24.23;;;12.30;;
48623;SDS011;75490;45.802;16.114;2024-03-06T07:23:14;22.92;;;11.77;;
48623;SDS011;75490;45.802;16.114;2024-03-06T07:25:41;28.33;;;12.38;;
48623;SDS011;75490;45.802;16.114;2024-03-06T07:28:08;23.75;;;11.93;;
48623;SDS011;75490;45.802;16.114;2024-03-06T07:30:35;19.48;;;11.10;;
48623;SDS011;75490;45.802;16.114;2024-03-06T07:33:02;19.83;;;11.30;;
48623;SDS011;75490;45.802;16.114;2024-03-06T07:35:29;23.15;;;12.85;;
48623;SDS011;75490;45.802;16.114;2024-03-06T07:37:56;22.38;;;12.07;;
48623;SDS011;75490;45.802;16.114;2024-03-06T07:40:23;19.15;;;11.65;;
48623;SDS011;75490;45.802;16.114;2024-03-06T07:42:50;20.25;;;11.63;;
48623;SDS011;75490;45.802;16.114;2024-03-06T07:45:17;25.40;;;12.20;;
48623;SDS011;75490;45.802;16.114;2024-03-06T07:47:47;22.55;;;12.27;;
48623;SDS011;75490;45.802;16.114;2024-03-06T07:50:14;20.98;;;11.40;;
48623;SDS011;75490;45.802;16.114;2024-03-06T07:52:45;24.40;;;12.25;;
48623;SDS011;75490;45.802;16.114;2024-03-06T07:55:12;21.08;;;11.05;;
48623;SDS011;75490;45.802;16.114;2024-03-06T07:57:39;19.70;;;11.63;;
48623;SDS011;75490;45.802;16.114;2024-03-06T08:00:06;24.08;;;12.27;;
48623;SDS011;75490;45.802;16.114;2024-03-06T08:02:49;21.08;;;11.15;;
48623;SDS011;75490;45.802;16.114;2024-03-06T08:05:22;18.88;;;10.52;;
48623;SDS011;75490;45.802;16.114;2024-03-06T08:07:49;19.92;;;11.57;;
48623;SDS011;75490;45.802;16.114;2024-03-06T08:10:16;20.70;;;11.77;;
48623;SDS011;75490;45.802;16.114;2024-03-06T08:12:43;22.00;;;12.02;;
48623;SDS011;75490;45.802;16.114;2024-03-06T08:15:12;20.60;;;12.68;;
48623;SDS011;75490;45.802;16.114;2024-03-06T08:17:40;23.13;;;12.18;;
48623;SDS011;75490;45.802;16.114;2024-03-06T08:20:11;20.50;;;11.02;;
48623;SDS011;75490;45.802;16.114;2024-03-06T08:22:41;22.85;;;11.55;;
48623;SDS011;75490;45.802;16.114;2024-03-06T08:25:09;22.25;;;11.85;;
48623;SDS011;75490;45.802;16.114;2024-03-06T08:27:38;20.45;;;12.65;;
48623;SDS011;75490;45.802;16.114;2024-03-06T08:30:06;24.45;;;12.65;;
48623;SDS011;75490;45.802;16.114;2024-03-06T08:32:34;53.38;;;29.58;;
48623;SDS011;75490;45.802;16.114;2024-03-06T08:35:11;28.05;;;17.88;;
48623;SDS011;75490;45.802;16.114;2024-03-06T08:37:41;26.33;;;15.02;;
48623;SDS011;75490;45.802;16.114;2024-03-06T08:40:09;43.47;;;26.02;;
48623;SDS011;75490;45.802;16.114;2024-03-06T08:42:41;69.70;;;40.15;;
48623;SDS011;75490;45.802;16.114;2024-03-06T08:45:11;66.15;;;40.88;;
48623;SDS011;75490;45.802;16.114;2024-03-06T08:47:38;140.55;;;80.47;;
48623;SDS011;75490;45.802;16.114;2024-03-06T08:50:05;62.08;;;38.67;;
48623;SDS011;75490;45.802;16.114;2024-03-06T08:52:34;27.42;;;17.73;;
48623;SDS011;75490;45.802;16.114;2024-03-06T08:55:03;78.20;;;44.85;;
48623;SDS011;75490;45.802;16.114;2024-03-06T08:57:30;43.50;;;27.33;;
48623;SDS011;75490;45.802;16.114;2024-03-06T08:59:58;31.45;;;18.17;;
48623;SDS011;75490;45.802;16.114;2024-03-06T09:02:25;30.98;;;18.70;;
48623;SDS011;75490;45.802;16.114;2024-03-06T09:04:55;29.33;;;16.33;;
48623;SDS011;75490;45.802;16.114;2024-03-06T09:07:22;28.55;;;15.23;;
48623;SDS011;75490;45.802;16.114;2024-03-06T09:09:52;23.77;;;14.10;;
48623;SDS011;75490;45.802;16.114;2024-03-06T09:12:20;27.13;;;13.05;;
48623;SDS011;75490;45.802;16.114;2024-03-06T09:14:47;23.30;;;13.90;;
48623;SDS011;75490;45.802;16.114;2024-03-06T09:17:16;21.92;;;12.93;;
48623;SDS011;75490;45.802;16.114;2024-03-06T09:19:46;29.00;;;15.27;;
48623;SDS011;75490;45.802;16.114;2024-03-06T09:22:13;36.00;;;23.52;;
48623;SDS011;75490;45.802;16.114;2024-03-06T09:24:40;34.05;;;24.02;;
48623;SDS011;75490;45.802;16.114;2024-03-06T09:27:07;62.90;;;38.53;;
48623;SDS011;75490;45.802;16.114;2024-03-06T09:29:34;26.70;;;16.10;;
48623;SDS011;75490;45.802;16.114;2024-03-06T09:32:01;22.08;;;13.20;;
48623;SDS011;75490;45.802;16.114;2024-03-06T09:34:28;27.75;;;15.50;;
48623;SDS011;75490;45.802;16.114;2024-03-06T09:36:55;26.67;;;14.43;;
48623;SDS011;75490;45.802;16.114;2024-03-06T09:39:21;24.48;;;14.45;;
48623;SDS011;75490;45.802;16.114;2024-03-06T09:41:52;24.70;;;13.20;;
48623;SDS011;75490;45.802;16.114;2024-03-06T09:44:20;26.00;;;13.07;;
48623;SDS011;75490;45.802;16.114;2024-03-06T09:46:48;31.90;;;17.80;;
48623;SDS011;75490;45.802;16.114;2024-03-06T09:49:18;35.47;;;19.83;;
48623;SDS011;75490;45.802;16.114;2024-03-06T09:51:48;37.50;;;20.02;;
48623;SDS011;75490;45.802;16.114;2024-03-06T09:54:23;26.30;;;15.07;;
48623;SDS011;75490;45.802;16.114;2024-03-06T09:57:01;27.17;;;14.63;;
48623;SDS011;75490;45.802;16.114;2024-03-06T09:59:49;29.45;;;14.93;;
48623;SDS011;75490;45.802;16.114;2024-03-06T10:05:05;26.95;;;14.55;;
48623;SDS011;75490;45.802;16.114;2024-03-06T10:07:35;37.28;;;20.88;;
48623;SDS011;75490;45.802;16.114;2024-03-06T10:12:52;26.95;;;13.05;;
48623;SDS011;75490;45.802;16.114;2024-03-06T10:15:23;45.78;;;20.85;;
48623;SDS011;75490;45.802;16.114;2024-03-06T10:17:52;21.90;;;12.38;;
48623;SDS011;75490;45.802;16.114;2024-03-06T10:20:19;24.73;;;13.95;;
48623;SDS011;75490;45.802;16.114;2024-03-06T10:22:51;22.98;;;11.68;;
48623;SDS011;75490;45.802;16.114;2024-03-06T10:25:19;25.15;;;12.68;;
48623;SDS011;75490;45.802;16.114;2024-03-06T10:30:37;24.15;;;12.55;;
48623;SDS011;75490;45.802;16.114;2024-03-06T10:33:09;22.33;;;12.52;;
48623;SDS011;75490;45.802;16.114;2024-03-06T10:35:36;41.72;;;21.00;;
48623;SDS011;75490;45.802;16.114;2024-03-06T10:38:12;44.85;;;21.67;;
48623;SDS011;75490;45.802;16.114;2024-03-06T10:40:42;36.70;;;19.30;;
48623;SDS011;75490;45.802;16.114;2024-03-06T10:43:10;24.48;;;12.85;;
48623;SDS011;75490;45.802;16.114;2024-03-06T10:45:40;21.20;;;11.77;;
48623;SDS011;75490;45.802;16.114;2024-03-06T10:48:23;21.20;;;12.25;;
48623;SDS011;75490;45.802;16.114;2024-03-06T10:50:50;18.95;;;9.57;;
48623;SDS011;75490;45.802;16.114;2024-03-06T10:53:18;21.92;;;11.80;;
48623;SDS011;75490;45.802;16.114;2024-03-06T10:55:45;26.77;;;11.10;;
48623;SDS011;75490;45.802;16.114;2024-03-06T10:58:12;23.25;;;12.60;;
48623;SDS011;75490;45.802;16.114;2024-03-06T11:00:44;23.33;;;12.18;;
48623;SDS011;75490;45.802;16.114;2024-03-06T11:03:15;20.40;;;11.13;;
48623;SDS011;75490;45.802;16.114;2024-03-06T11:05:44;21.77;;;12.00;;
48623;SDS011;75490;45.802;16.114;2024-03-06T11:08:17;20.80;;;11.70;;
48623;SDS011;75490;45.802;16.114;2024-03-06T11:10:45;20.58;;;10.68;;
48623;SDS011;75490;45.802;16.114;2024-03-06T11:13:22;21.92;;;12.50;;
48623;SDS011;75490;45.802;16.114;2024-03-06T11:15:52;20.70;;;11.15;;
48623;SDS011;75490;45.802;16.114;2024-03-06T11:18:41;20.95;;;11.85;;
48623;SDS011;75490;45.802;16.114;2024-03-06T11:24:11;24.17;;;13.00;;
48623;SDS011;75490;45.802;16.114;2024-03-06T11:26:46;21.98;;;11.32;;
48623;SDS011;75490;45.802;16.114;2024-03-06T11:29:22;23.90;;;13.00;;
48623;SDS011;75490;45.802;16.114;2024-03-06T11:32:00;21.45;;;12.05;;
48623;SDS011;75490;45.802;16.114;2024-03-06T11:34:27;20.50;;;11.15;;
48623;SDS011;75490;45.802;16.114;2024-03-06T11:36:57;20.23;;;10.52;;
48623;SDS011;75490;45.802;16.114;2024-03-06T11:39:27;22.63;;;12.40;;
48623;SDS011;75490;45.802;16.114;2024-03-06T11:41:55;23.73;;;12.27;;
48623;SDS011;75490;45.802;16.114;2024-03-06T11:44:27;20.40;;;10.80;;
48623;SDS011;75490;45.802;16.114;2024-03-06T11:49:35;18.75;;;10.52;;
48623;SDS011;75490;45.802;16.114;2024-03-06T11:52:09;19.58;;;11.30;;
48623;SDS011;75490;45.802;16.114;2024-03-06T11:54:36;19.35;;;10.48;;
48623;SDS011;75490;45.802;16.114;2024-03-06T11:57:07;19.17;;;10.27;;
48623;SDS011;75490;45.802;16.114;2024-03-06T11:59:35;21.30;;;10.80;;
48623;SDS011;75490;45.802;16.114;2024-03-06T12:02:06;21.33;;;11.10;;
48623;SDS011;75490;45.802;16.114;2024-03-06T12:04:35;25.60;;;11.95;;
48623;SDS011;75490;45.802;16.114;2024-03-06T12:07:08;18.58;;;10.85;;
48623;SDS011;75490;45.802;16.114;2024-03-06T12:09:42;24.77;;;11.25;;
48623;SDS011;75490;45.802;16.114;2024-03-06T12:12:09;21.02;;;11.05;;
48623;SDS011;75490;45.802;16.114;2024-03-06T12:14:37;20.80;;;10.18;;
48623;SDS011;75490;45.802;16.114;2024-03-06T12:17:05;18.40;;;10.07;;
48623;SDS011;75490;45.802;16.114;2024-03-06T12:19:35;20.33;;;10.25;;
48623;SDS011;75490;45.802;16.114;2024-03-06T12:22:02;19.52;;;11.45;;
48623;SDS011;75490;45.802;16.114;2024-03-06T12:24:31;20.45;;;10.30;;
48623;SDS011;75490;45.802;16.114;2024-03-06T12:27:00;18.88;;;11.40;;
48623;SDS011;75490;45.802;16.114;2024-03-06T12:29:31;20.30;;;10.82;;
48623;SDS011;75490;45.802;16.114;2024-03-06T12:32:00;18.60;;;10.75;;
48623;SDS011;75490;45.802;16.114;2024-03-06T12:34:34;19.35;;;10.85;;
48623;SDS011;75490;45.802;16.114;2024-03-06T12:37:09;25.75;;;12.40;;
48623;SDS011;75490;45.802;16.114;2024-03-06T12:39:39;18.30;;;10.50;;
48623;SDS011;75490;45.802;16.114;2024-03-06T12:42:06;50.05;;;28.00;;
48623;SDS011;75490;45.802;16.114;2024-03-06T12:44:40;26.40;;;14.27;;
48623;SDS011;75490;45.802;16.114;2024-03-06T12:47:07;19.65;;;10.80;;
48623;SDS011;75490;45.802;16.114;2024-03-06T12:49:34;26.50;;;12.38;;
48623;SDS011;75490;45.802;16.114;2024-03-06T12:52:01;25.67;;;14.50;;
48623;SDS011;75490;45.802;16.114;2024-03-06T12:54:29;41.67;;;20.85;;
48623;SDS011;75490;45.802;16.114;2024-03-06T12:56:56;18.30;;;9.75;;
48623;SDS011;75490;45.802;16.114;2024-03-06T12:59:23;18.42;;;8.93;;
48623;SDS011;75490;45.802;16.114;2024-03-06T13:01:50;29.38;;;12.90;;
48623;SDS011;75490;45.802;16.114;2024-03-06T13:04:17;19.38;;;10.13;;
48623;SDS011;75490;45.802;16.114;2024-03-06T13:06:49;19.08;;;9.63;;
48623;SDS011;75490;45.802;16.114;2024-03-06T13:09:16;22.50;;;9.93;;
48623;SDS011;75490;45.802;16.114;2024-03-06T13:11:49;22.30;;;10.95;;
48623;SDS011;75490;45.802;16.114;2024-03-06T13:14:16;19.30;;;10.05;;
48623;SDS011;75490;45.802;16.114;2024-03-06T13:17:00;17.33;;;9.43;;
48623;SDS011;75490;45.802;16.114;2024-03-06T13:19:31;17.92;;;10.02;;
48623;SDS011;75490;45.802;16.114;2024-03-06T13:21:57;20.80;;;10.40;;
48623;SDS011;75490;45.802;16.114;2024-03-06T13:24:24;20.02;;;10.65;;
48623;SDS011;75490;45.802;16.114;2024-03-06T13:26:54;20.95;;;11.80;;
48623;SDS011;75490;45.802;16.114;2024-03-06T13:29:21;20.00;;;11.20;;
48623;SDS011;75490;45.802;16.114;2024-03-06T13:31:48;17.00;;;9.80;;
48623;SDS011;75490;45.802;16.114;2024-03-06T13:34:14;23.35;;;12.75;;
48623;SDS011;75490;45.802;16.114;2024-03-06T13:36:42;20.92;;;10.40;;
48623;SDS011;75490;45.802;16.114;2024-03-06T13:39:10;18.45;;;9.95;;
48623;SDS011;75490;45.802;16.114;2024-03-06T13:41:38;21.55;;;11.88;;
48623;SDS011;75490;45.802;16.114;2024-03-06T13:44:07;20.75;;;11.38;;
48623;SDS011;75490;45.802;16.114;2024-03-06T13:46:34;19.25;;;10.07;;
48623;SDS011;75490;45.802;16.114;2024-03-06T13:49:01;20.45;;;10.30;;
48623;SDS011;75490;45.802;16.114;2024-03-06T13:51:28;19.60;;;10.15;;
48623;SDS011;75490;45.802;16.114;2024-03-06T13:53:55;19.80;;;9.82;;
48623;SDS011;75490;45.802;16.114;2024-03-06T13:56:21;19.17;;;10.75;;
48623;SDS011;75490;45.802;16.114;2024-03-06T13:58:48;22.25;;;11.98;;
48623;SDS011;75490;45.802;16.114;2024-03-06T14:01:15;19.58;;;11.18;;
48623;SDS011;75490;45.802;16.114;2024-03-06T14:03:42;18.20;;;10.32;;
48623;SDS011;75490;45.802;16.114;2024-03-06T14:06:11;19.52;;;10.15;;
48623;SDS011;75490;45.802;16.114;2024-03-06T14:08:42;21.45;;;9.50;;
48623;SDS011;75490;45.802;16.114;2024-03-06T14:11:12;22.33;;;11.40;;
48623;SDS011;75490;45.802;16.114;2024-03-06T14:13:39;19.23;;;10.20;;
48623;SDS011;75490;45.802;16.114;2024-03-06T14:16:06;19.70;;;11.20;;
48623;SDS011;75490;45.802;16.114;2024-03-06T14:18:33;20.55;;;11.68;;
48623;SDS011;75490;45.802;16.114;2024-03-06T14:21:00;22.75;;;11.95;;
48623;SDS011;75490;45.802;16.114;2024-03-06T14:23:27;23.10;;;13.10;;
48623;SDS011;75490;45.802;16.114;2024-03-06T14:25:56;20.25;;;10.70;;
48623;SDS011;75490;45.802;16.114;2024-03-06T14:28:23;20.88;;;11.05;;
48623;SDS011;75490;45.802;16.114;2024-03-06T14:30:49;22.52;;;10.88;;